Front Ariake — C6RX9 — position and weather

sailwx.info

Track history (hours):
 
Tides and Currents Weather Stations Pressure Air Temp Water Temp Dewpoint Dewpoint Depression Visibility Wind Speed Wind Dir Waves Ship Positions

Front Ariake

Last reported at 2015-Apr-09 13:20 UTC. Time now 2015-Apr-21 06:33 UTC.
Position S 33°08' E 017°03'.
Warning: this ship's position is 11 days out of date.

Length 333 m; draft 11 m.

Type: Tanker. MMSI: 311226956.

Date/timePositionNaut miles runAvg speedWind from/ knotsBaromVisibWave heightAir tempDewpointWater temp
2015-Apr-09 13:20S 33°08' E 017°03'  
2015-Apr-05 20:13S 30°35' E 030°53'6 8.6
2015-Apr-05 19:30S 30°29' E 030°55'8 8.5
2015-Apr-05 18:33S 30°21' E 030°58'8 7.5
2015-Apr-05 17:29S 30°13' E 031°00'10 7.9
2015-Apr-05 16:15S 30°04' E 031°02'3 3.8
2015-Apr-05 15:33S 30°01' E 030°60'2 0.6
2015-Apr-05 12:27S 30°00' E 030°58'0 0.0
2015-Apr-05 11:27S 30°00' E 030°58'0 0.1
2015-Apr-05 07:09S 30°01' E 030°58'0 0.0
2015-Apr-05 06:27S 30°01' E 030°58'0 0.0
2015-Apr-05 05:15S 30°01' E 030°58'0 0.0
2015-Apr-04 23:09S 30°01' E 030°58'0 0.0
2015-Apr-04 22:09S 30°01' E 030°58'0 0.0
2015-Apr-04 21:27S 30°01' E 030°58'0 0.0
2015-Apr-04 20:27S 30°01' E 030°58'0 0.0
2015-Apr-04 17:27S 30°01' E 030°58'0 0.0
2015-Apr-04 16:33S 30°01' E 030°58'0 0.0
2015-Apr-04 15:33S 30°01' E 030°58'0 0.0
2015-Apr-04 14:33S 30°01' E 030°58'0 0.0
2015-Apr-04 13:33S 30°01' E 030°58'0 0.0
2015-Apr-04 12:15S 30°01' E 030°58'0 0.0
2015-Apr-04 11:21S 30°01' E 030°58'0 0.0
2015-Apr-04 10:15S 30°01' E 030°58'0 0.0
2015-Apr-04 09:33S 30°01' E 030°58'0 0.0
2015-Apr-04 08:33S 30°01' E 030°58'0 0.0
2015-Apr-04 07:33S 30°01' E 030°58'0 0.0
2015-Apr-04 06:33S 30°01' E 030°58'0 0.0
2015-Apr-04 04:21S 30°01' E 030°58'0 0.0
2015-Apr-04 03:21S 30°01' E 030°58'0 0.0
2015-Apr-04 02:27S 30°01' E 030°58'0 0.0
2015-Apr-04 01:15S 30°01' E 030°58'0 0.0
2015-Apr-03 23:15S 30°01' E 030°58'0 0.0
2015-Apr-03 22:27S 30°01' E 030°58'0 0.0
2015-Apr-03 21:21S 30°01' E 030°58'0 0.0
2015-Apr-03 20:33S 30°01' E 030°58'0 0.0
2015-Apr-03 19:09S 30°01' E 030°58'0 0.0
2015-Apr-03 18:09S 30°01' E 030°58'0 0.0
2015-Apr-03 17:27S 30°01' E 030°58'0 0.0
2015-Apr-03 15:09S 30°01' E 030°58'0 0.0
2015-Apr-03 13:21S 30°01' E 030°58'0 0.0
2015-Apr-03 12:27S 30°01' E 030°58'0 0.0
2015-Apr-03 11:27S 30°01' E 030°58'0 0.0
2015-Apr-03 09:33S 30°01' E 030°58'1 0.7
2015-Apr-03 08:21S 30°01' E 030°58'2 2.4
2015-Apr-03 07:32S 30°01' E 030°60'6 6.1
2015-Apr-03 06:33S 29°58' E 031°06'5 4.2
2015-Apr-03 05:29S 29°54' E 031°08'1 1.4
2015-Apr-03 04:33S 29°53' E 031°09'4 3.9
2015-Apr-03 03:33S 29°52' E 031°13'5 5.4
2015-Apr-03 02:33S 29°51' E 031°19'5 4.7
2015-Apr-03 01:33S 29°49' E 031°24'1010.1
2015-Apr-03 00:33S 29°43' E 031°33'1211.7
2015-Apr-02 23:33S 29°37' E 031°44'  
Track history (hours):
 
Tides and Currents Weather Stations Pressure Air Temp Water Temp Dewpoint Dewpoint Depression Visibility Wind Speed Wind Dir Waves Ship Positions

Front Ariake

Last reported at 2015-Apr-09 13:20 UTC. Time now 2015-Apr-21 06:33 UTC.
Position S 33°08' E 017°03'.
Warning: this ship's position is 11 days out of date.

Length 333 m; draft 11 m.

Type: Tanker. MMSI: 311226956.

Date/timePositionNaut miles runAvg speedWind from/ knotsBaromVisibWave heightAir tempDewpointWater temp
2015-Apr-09 13:20S 33°08' E 017°03'  
2015-Apr-05 20:13S 30°35' E 030°53'6 8.6
2015-Apr-05 19:30S 30°29' E 030°55'8 8.5
2015-Apr-05 18:33S 30°21' E 030°58'8 7.5
2015-Apr-05 17:29S 30°13' E 031°00'10 7.9
2015-Apr-05 16:15S 30°04' E 031°02'3 3.8
2015-Apr-05 15:33S 30°01' E 030°60'2 0.6
2015-Apr-05 12:27S 30°00' E 030°58'0 0.0
2015-Apr-05 11:27S 30°00' E 030°58'0 0.1
2015-Apr-05 07:09S 30°01' E 030°58'0 0.0
2015-Apr-05 06:27S 30°01' E 030°58'0 0.0
2015-Apr-05 05:15S 30°01' E 030°58'0 0.0
2015-Apr-04 23:09S 30°01' E 030°58'0 0.0
2015-Apr-04 22:09S 30°01' E 030°58'0 0.0
2015-Apr-04 21:27S 30°01' E 030°58'0 0.0
2015-Apr-04 20:27S 30°01' E 030°58'0 0.0
2015-Apr-04 17:27S 30°01' E 030°58'0 0.0
2015-Apr-04 16:33S 30°01' E 030°58'0 0.0
2015-Apr-04 15:33S 30°01' E 030°58'0 0.0
2015-Apr-04 14:33S 30°01' E 030°58'0 0.0
2015-Apr-04 13:33S 30°01' E 030°58'0 0.0
2015-Apr-04 12:15S 30°01' E 030°58'0 0.0
2015-Apr-04 11:21S 30°01' E 030°58'0 0.0
2015-Apr-04 10:15S 30°01' E 030°58'0 0.0
2015-Apr-04 09:33S 30°01' E 030°58'0 0.0
2015-Apr-04 08:33S 30°01' E 030°58'0 0.0
2015-Apr-04 07:33S 30°01' E 030°58'0 0.0
2015-Apr-04 06:33S 30°01' E 030°58'0 0.0
2015-Apr-04 04:21S 30°01' E 030°58'0 0.0
2015-Apr-04 03:21S 30°01' E 030°58'0 0.0
2015-Apr-04 02:27S 30°01' E 030°58'0 0.0
2015-Apr-04 01:15S 30°01' E 030°58'0 0.0
2015-Apr-03 23:15S 30°01' E 030°58'0 0.0
2015-Apr-03 22:27S 30°01' E 030°58'0 0.0
2015-Apr-03 21:21S 30°01' E 030°58'0 0.0
2015-Apr-03 20:33S 30°01' E 030°58'0 0.0
2015-Apr-03 19:09S 30°01' E 030°58'0 0.0
2015-Apr-03 18:09S 30°01' E 030°58'0 0.0
2015-Apr-03 17:27S 30°01' E 030°58'0 0.0
2015-Apr-03 15:09S 30°01' E 030°58'0 0.0
2015-Apr-03 13:21S 30°01' E 030°58'0 0.0
2015-Apr-03 12:27S 30°01' E 030°58'0 0.0
2015-Apr-03 11:27S 30°01' E 030°58'0 0.0
2015-Apr-03 09:33S 30°01' E 030°58'1 0.7
2015-Apr-03 08:21S 30°01' E 030°58'2 2.4
2015-Apr-03 07:32S 30°01' E 030°60'6 6.1
2015-Apr-03 06:33S 29°58' E 031°06'5 4.2
2015-Apr-03 05:29S 29°54' E 031°08'1 1.4
2015-Apr-03 04:33S 29°53' E 031°09'4 3.9
2015-Apr-03 03:33S 29°52' E 031°13'5 5.4
2015-Apr-03 02:33S 29°51' E 031°19'5 4.7
2015-Apr-03 01:33S 29°49' E 031°24'1010.1
2015-Apr-03 00:33S 29°43' E 031°33'1211.7
2015-Apr-02 23:33S 29°37' E 031°44'  

Dump ship's entire track history